Time;durP1;ratioP1;P1;durP2;ratioP2;P2;SDS_P1;SDS_P2;PMS_P1;PMS_P2;Temp;Humidity;BMP_temperature;BMP_pressure;BME280_temperature;BME280_humidity;BME280_pressure;Samples;Min_cycle;Max_cycle;Signal;HPM_P1;HPM_P2
2021/11/19 00:00:13;;;;;;;27.25;14.60;;;;;;;9.54;100.00;102431.41;5040587;28;20045;-72
2021/11/19 00:02:41;;;;;;;25.13;12.95;;;;;;;9.55;100.00;102433.94;5042910;28;20339;-70
2021/11/19 00:05:10;;;;;;;28.38;13.52;;;;;;;9.50;100.00;102435.25;5045001;28;20106;-71
2021/11/19 00:07:39;;;;;;;30.08;16.05;;;;;;;9.54;100.00;102432.28;5045469;28;20048;-72
2021/11/19 00:10:09;;;;;;;31.52;14.23;;;;;;;9.58;100.00;102428.41;5044835;28;20096;-71
2021/11/19 00:12:37;;;;;;;32.72;15.07;;;;;;;9.46;100.00;102434.66;5046258;28;20044;-71
2021/11/19 00:15:07;;;;;;;31.45;15.15;;;;;;;9.52;100.00;102431.53;5043089;28;20057;-71
2021/11/19 00:17:35;;;;;;;35.58;15.60;;;;;;;9.50;100.00;102430.81;5045367;28;20468;-71
2021/11/19 00:20:04;;;;;;;35.33;16.20;;;;;;;9.46;100.00;102424.84;5039914;28;20052;-71
2021/11/19 00:22:39;;;;;;;40.45;15.40;;;;;;;9.42;100.00;102422.53;5050650;28;20068;-71
2021/11/19 00:25:09;;;;;;;40.17;15.95;;;;;;;9.49;100.00;102418.44;5041245;28;20120;-72
2021/11/19 00:27:37;;;;;;;35.38;15.40;;;;;;;9.44;100.00;102410.78;5045534;28;20099;-70
2021/11/19 00:30:09;;;;;;;33.25;16.13;;;;;;;9.42;100.00;102412.69;5043668;28;20053;-73
2021/11/19 00:32:37;;;;;;;38.30;16.48;;;;;;;9.43;100.00;102410.91;5044163;28;20042;-69
2021/11/19 00:35:07;;;;;;;36.95;16.50;;;;;;;9.45;100.00;102419.63;5044898;28;20045;-70
2021/11/19 00:37:35;;;;;;;42.63;18.05;;;;;;;9.43;100.00;102418.91;5043010;28;20451;-70
2021/11/19 00:40:07;;;;;;;43.50;18.35;;;;;;;9.52;100.00;102417.34;5037001;28;20044;-70
2021/11/19 00:42:35;;;;;;;46.03;17.35;;;;;;;9.46;100.00;102424.00;5044159;28;20041;-70
2021/11/19 00:45:04;;;;;;;38.90;17.42;;;;;;;9.48;100.00;102416.72;5040757;28;20054;-70
2021/11/19 00:47:32;;;;;;;33.88;16.65;;;;;;;9.51;100.00;102421.81;5041801;28;20067;-69
2021/11/19 00:50:00;;;;;;;38.95;16.67;;;;;;;9.48;100.00;102417.59;5038488;28;20044;-69
2021/11/19 00:52:28;;;;;;;40.92;17.65;;;;;;;9.48;100.00;102411.38;5042638;28;20049;-71
2021/11/19 00:54:56;;;;;;;42.05;17.70;;;;;;;9.60;100.00;102418.44;5045383;28;20048;-70
2021/11/19 00:57:25;;;;;;;38.92;17.83;;;;;;;9.50;100.00;102419.25;5040080;28;20091;-70
2021/11/19 00:59:53;;;;;;;37.63;17.98;;;;;;;9.52;100.00;102428.00;5040091;28;20098;-71
2021/11/19 01:02:24;;;;;;;30.40;15.50;;;;;;;9.61;100.00;102421.97;5042653;28;20049;-71
2021/11/19 01:04:53;;;;;;;35.67;16.17;;;;;;;9.55;100.00;102417.94;5044006;28;20044;-70
2021/11/19 01:07:23;;;;;;;38.83;17.77;;;;;;;9.61;100.00;102422.84;5043867;28;20048;-70
2021/11/19 01:09:54;;;;;;;39.03;16.17;;;;;;;9.65;100.00;102418.97;5038397;28;20049;-70
2021/11/19 01:12:26;;;;;;;48.92;16.83;;;;;;;9.62;100.00;102416.50;5043194;28;20053;-71
2021/11/19 01:14:57;;;;;;;42.63;17.48;;;;;;;9.69;100.00;102414.22;5041424;28;20045;-71
2021/11/19 01:17:31;;;;;;;37.42;15.65;;;;;;;9.65;100.00;102418.97;5039335;28;20365;-70
2021/11/19 01:20:07;;;;;;;32.97;15.88;;;;;;;9.73;100.00;102415.69;5037125;28;20043;-69
2021/11/19 01:22:37;;;;;;;34.00;16.20;;;;;;;9.70;100.00;102418.59;5043304;28;20045;-72
2021/11/19 01:25:09;;;;;;;34.70;16.45;;;;;;;9.70;100.00;102415.94;5042514;28;20386;-71
2021/11/19 01:27:38;;;;;;;33.05;16.50;;;;;;;9.76;100.00;102423.44;5040432;28;20045;-71
2021/11/19 01:30:08;;;;;;;37.20;16.52;;;;;;;9.73;100.00;102414.84;5038507;28;20052;-71
2021/11/19 01:32:36;;;;;;;36.03;16.98;;;;;;;9.79;100.00;102425.88;5043105;28;20060;-70
2021/11/19 01:35:05;;;;;;;33.75;15.73;;;;;;;9.80;100.00;102427.59;5040492;28;20400;-70
2021/11/19 01:37:33;;;;;;;31.83;16.13;;;;;;;9.71;100.00;102427.44;5043728;28;20044;-71
2021/11/19 01:40:01;;;;;;;40.40;17.38;;;;;;;9.72;100.00;102421.97;5035981;28;20407;-71
2021/11/19 01:42:33;;;;;;;39.13;16.77;;;;;;;9.75;100.00;102426.25;5044544;28;20053;-70
2021/11/19 01:45:11;;;;;;;33.20;16.48;;;;;;;9.77;100.00;102416.31;5037906;28;20046;-70
2021/11/19 01:47:44;;;;;;;38.05;16.67;;;;;;;9.81;100.00;102417.78;5040606;28;20155;-71
2021/11/19 01:50:20;;;;;;;38.92;16.63;;;;;;;9.73;100.00;102420.19;5037159;28;20436;-70
2021/11/19 01:52:54;;;;;;;30.02;15.73;;;;;;;9.77;100.00;102416.31;5044803;28;20044;-71
2021/11/19 01:55:25;;;;;;;37.72;17.92;;;;;;;9.73;100.00;102420.19;5037830;28;20091;-70
2021/11/19 01:57:55;;;;;;;31.00;15.43;;;;;;;9.73;100.00;102414.84;5044681;28;20041;-70
2021/11/19 02:00:29;;;;;;;37.67;16.40;;;;;;;9.74;100.00;102419.19;5035316;28;20310;-71
2021/11/19 02:02:58;;;;;;;33.67;15.65;;;;;;;9.72;100.00;102415.81;5040158;28;20044;-71
2021/11/19 02:05:30;;;;;;;34.75;16.08;;;;;;;9.79;100.00;102422.38;5041224;28;20049;-71
2021/11/19 02:08:00;;;;;;;35.30;16.52;;;;;;;9.74;100.00;102405.84;5039758;28;20045;-70
2021/11/19 02:10:46;;;;;;;35.03;15.82;;;;;;;9.79;100.00;102414.38;5038097;28;20053;-71
2021/11/19 02:13:20;;;;;;;35.78;16.00;;;;;;;9.77;100.00;102411.81;5041614;28;20052;-70
2021/11/19 02:15:52;;;;;;;35.03;14.95;;;;;;;9.80;100.00;102410.75;5042815;28;20048;-70
2021/11/19 02:18:24;;;;;;;33.60;16.20;;;;;;;9.69;100.00;102402.72;5039996;28;20115;-70
2021/11/19 02:20:55;;;;;;;34.72;15.73;;;;;;;9.70;100.00;102405.25;5034409;28;20460;-70
2021/11/19 02:23:26;;;;;;;37.20;16.33;;;;;;;9.75;100.00;102399.56;5043763;28;20159;-71
2021/11/19 02:25:58;;;;;;;31.30;15.15;;;;;;;9.75;100.00;102402.22;5043724;28;20045;-71
2021/11/19 02:28:28;;;;;;;33.10;15.85;;;;;;;9.75;100.00;102400.44;5038107;28;20064;-69
2021/11/19 02:31:00;;;;;;;40.25;17.50;;;;;;;9.74;100.00;102400.53;5040060;28;20057;-70
2021/11/19 02:33:30;;;;;;;33.38;15.05;;;;;;;9.74;100.00;102398.72;5041604;28;20037;-69
2021/11/19 02:36:00;;;;;;;29.98;15.27;;;;;;;9.65;100.00;102400.28;5042270;28;20045;-69
2021/11/19 02:38:33;;;;;;;38.13;17.80;;;;;;;9.62;100.00;102403.16;5040916;28;20059;-69
2021/11/19 02:41:01;;;;;;;35.95;15.70;;;;;;;9.68;100.00;102398.34;5033831;28;20079;-69
2021/11/19 02:43:39;;;;;;;43.53;16.50;;;;;;;9.65;100.00;102399.41;5040905;28;20330;-70
2021/11/19 02:46:08;;;;;;;36.17;17.25;;;;;;;9.61;100.00;102395.28;5038895;28;20302;-70
2021/11/19 02:48:38;;;;;;;37.83;17.33;;;;;;;9.67;100.00;102396.63;5043406;28;20527;-70
2021/11/19 02:51:08;;;;;;;38.22;17.90;;;;;;;9.61;100.00;102401.50;5039289;28;20106;-70
2021/11/19 02:53:37;;;;;;;38.60;16.15;;;;;;;9.59;100.00;102403.41;5044896;28;20037;-70
2021/11/19 02:56:05;;;;;;;37.75;17.15;;;;;;;9.62;100.00;102397.00;5047757;28;20047;-70
2021/11/19 02:58:36;;;;;;;41.38;16.17;;;;;;;9.60;100.00;102388.28;5039885;28;20040;-70
2021/11/19 03:01:12;;;;;;;39.97;17.52;;;;;;;9.62;100.00;102394.31;5036039;28;20694;-70
2021/11/19 03:03:44;;;;;;;43.75;16.55;;;;;;;9.77;100.00;102394.97;5040987;28;20114;-70
2021/11/19 03:06:12;;;;;;;43.83;16.35;;;;;;;9.72;100.00;102391.81;5040605;28;20050;-70
2021/11/19 03:08:41;;;;;;;35.35;16.83;;;;;;;9.74;100.00;102384.50;5040278;28;20041;-70
2021/11/19 03:11:10;;;;;;;44.45;17.38;;;;;;;9.71;100.00;102395.44;5035394;28;20505;-70
2021/11/19 03:13:39;;;;;;;31.80;15.27;;;;;;;9.72;100.00;102397.97;5044473;28;20272;-70
2021/11/19 03:16:08;;;;;;;33.00;15.55;;;;;;;9.74;100.00;102387.19;5040680;28;20099;-71
2021/11/19 03:18:38;;;;;;;31.65;15.13;;;;;;;9.78;100.00;102385.97;5040984;28;20060;-70
2021/11/19 03:21:09;;;;;;;32.20;16.50;;;;;;;9.82;100.00;102390.09;5035882;28;20049;-70
2021/11/19 03:23:38;;;;;;;32.95;14.82;;;;;;;9.81;100.00;102391.09;5038779;28;20227;-71
2021/11/19 03:26:07;;;;;;;29.77;14.35;;;;;;;9.84;100.00;102385.53;5045245;28;20099;-70
2021/11/19 03:28:35;;;;;;;31.10;16.23;;;;;;;9.84;100.00;102382.84;5043267;28;20045;-70
2021/11/19 03:31:06;;;;;;;32.08;14.48;;;;;;;9.85;100.00;102395.19;5037275;28;20049;-70
2021/11/19 03:33:40;;;;;;;31.42;14.18;;;;;;;9.81;100.00;102394.59;5041734;28;20056;-70
2021/11/19 03:36:09;;;;;;;31.27;13.45;;;;;;;9.86;100.00;102388.06;5039598;28;20439;-71
2021/11/19 03:38:39;;;;;;;29.60;13.32;;;;;;;9.82;100.00;102390.09;5043271;28;20049;-70
2021/11/19 03:41:09;;;;;;;32.55;13.90;;;;;;;9.74;100.00;102388.06;5039056;28;20391;-71
2021/11/19 03:43:41;;;;;;;30.95;14.15;;;;;;;9.72;100.00;102392.63;5041022;28;20099;-71
2021/11/19 03:46:14;;;;;;;33.15;14.02;;;;;;;9.83;100.00;102389.16;5042265;28;20045;-71
2021/11/19 03:48:43;;;;;;;32.08;14.85;;;;;;;9.77;100.00;102393.16;5038573;28;20107;-71
2021/11/19 03:51:14;;;;;;;31.13;14.68;;;;;;;9.75;100.00;102380.88;5035800;28;20093;-70
2021/11/19 03:53:42;;;;;;;42.88;17.60;;;;;;;9.73;100.00;102382.84;5039605;28;20048;-71
2021/11/19 03:56:10;;;;;;;37.13;14.90;;;;;;;9.75;100.00;102387.09;5038441;28;20092;-70
2021/11/19 03:58:41;;;;;;;30.13;15.60;;;;;;;9.65;100.00;102381.63;5042634;28;20064;-71
2021/11/19 04:01:12;;;;;;;34.15;14.90;;;;;;;9.75;100.00;102388.88;5037207;28;20037;-70
2021/11/19 04:03:40;;;;;;;33.60;14.30;;;;;;;9.88;100.00;102386.97;5035005;28;20372;-71
2021/11/19 04:06:10;;;;;;;34.78;15.80;;;;;;;9.78;100.00;102385.97;5042514;28;20098;-71
2021/11/19 04:08:38;;;;;;;40.65;16.00;;;;;;;9.76;100.00;102385.25;5039728;28;20046;-72
2021/11/19 04:11:09;;;;;;;36.67;15.23;;;;;;;9.76;100.00;102387.94;5041636;28;20050;-71
2021/11/19 04:13:37;;;;;;;36.20;14.75;;;;;;;9.74;100.00;102392.53;5039906;28;20345;-73
2021/11/19 04:16:08;;;;;;;30.48;15.57;;;;;;;9.75;100.00;102386.22;5045803;28;20048;-70
2021/11/19 04:18:36;;;;;;;28.83;14.32;;;;;;;9.74;100.00;102384.50;5042646;28;20094;-70
2021/11/19 04:21:06;;;;;;;34.05;16.05;;;;;;;9.79;100.00;102382.34;5040949;28;20049;-71
2021/11/19 04:23:36;;;;;;;34.70;16.13;;;;;;;9.82;100.00;102382.09;5046080;28;20053;-71
2021/11/19 04:26:06;;;;;;;38.80;15.57;;;;;;;9.81;100.00;102367.94;5043562;28;20041;-71
2021/11/19 04:28:34;;;;;;;34.30;15.95;;;;;;;9.81;100.00;102372.41;5041278;28;20438;-72
2021/11/19 04:31:03;;;;;;;33.78;14.98;;;;;;;9.87;100.00;102366.59;5039665;28;20337;-70
2021/11/19 04:33:31;;;;;;;31.75;15.00;;;;;;;9.88;100.00;102368.31;5039134;28;20076;-73
2021/11/19 04:35:59;;;;;;;34.35;14.50;;;;;;;9.84;100.00;102374.84;5048332;28;20044;-70
2021/11/19 04:38:28;;;;;;;36.40;15.63;;;;;;;9.82;100.00;102368.75;5041987;28;20048;-71
2021/11/19 04:40:58;;;;;;;41.80;15.07;;;;;;;9.88;100.00;102368.31;5040090;28;20040;-71
2021/11/19 04:43:27;;;;;;;31.75;14.95;;;;;;;9.91;100.00;102367.19;5043223;28;20045;-71
2021/11/19 04:45:55;;;;;;;33.13;16.13;;;;;;;9.88;100.00;102370.97;5041277;28;20095;-71
2021/11/19 04:48:26;;;;;;;31.35;13.73;;;;;;;9.90;100.00;102366.34;5045272;28;20040;-71
2021/11/19 04:50:55;;;;;;;34.15;15.80;;;;;;;9.99;100.00;102383.44;5038965;28;20069;-71
2021/11/19 04:53:25;;;;;;;33.00;13.27;;;;;;;10.06;100.00;102381.16;5044385;28;20456;-71
2021/11/19 04:55:53;;;;;;;31.02;13.38;;;;;;;9.96;100.00;102365.84;5042660;28;20044;-71
2021/11/19 04:58:23;;;;;;;28.63;15.13;;;;;;;9.89;100.00;102369.97;5037634;28;20033;-71
2021/11/19 05:00:57;;;;;;;31.33;15.43;;;;;;;9.99;100.00;102378.09;5040477;28;20060;-71
2021/11/19 05:03:25;;;;;;;31.00;14.18;;;;;;;9.97;100.00;102370.22;5039568;28;20049;-71
2021/11/19 05:05:54;;;;;;;31.80;13.88;;;;;;;10.04;100.00;102370.59;5045067;28;20444;-71
2021/11/19 05:08:22;;;;;;;36.28;14.38;;;;;;;10.04;100.00;102370.59;5040918;28;20045;-71
2021/11/19 05:10:56;;;;;;;29.52;13.20;;;;;;;9.98;100.00;102376.44;5038173;28;20029;-71
2021/11/19 05:13:27;;;;;;;29.42;13.45;;;;;;;10.03;100.00;102373.41;5041176;28;20446;-71
2021/11/19 05:15:56;;;;;;;31.40;15.32;;;;;;;10.07;100.00;102369.50;5042322;28;20471;-71
2021/11/19 05:18:26;;;;;;;28.45;13.55;;;;;;;10.08;100.00;102365.84;5040649;28;20042;-71
2021/11/19 05:20:56;;;;;;;31.08;14.25;;;;;;;10.06;100.00;102370.47;5038062;28;20053;-71
2021/11/19 05:23:25;;;;;;;28.50;13.90;;;;;;;10.08;100.00;102368.53;5044157;28;20436;-71
2021/11/19 05:25:53;;;;;;;27.38;13.57;;;;;;;10.08;100.00;102372.06;5039701;28;20341;-71
2021/11/19 05:28:23;;;;;;;28.80;13.90;;;;;;;10.04;100.00;102373.28;5041037;28;20053;-71
2021/11/19 05:30:53;;;;;;;27.55;13.27;;;;;;;10.09;100.00;102378.22;5039515;28;20042;-70
2021/11/19 05:33:26;;;;;;;24.73;13.38;;;;;;;10.03;100.00;102379.56;5040211;28;20041;-70
2021/11/19 05:35:54;;;;;;;32.42;14.50;;;;;;;10.10;100.00;102374.59;5040854;28;20055;-70
2021/11/19 05:38:23;;;;;;;30.67;14.30;;;;;;;10.00;100.00;102375.31;5040671;28;20041;-72
2021/11/19 05:40:52;;;;;;;29.42;13.30;;;;;;;10.03;100.00;102373.41;5039207;28;20110;-71
2021/11/19 05:43:24;;;;;;;30.70;13.73;;;;;;;10.04;100.00;102372.44;5040921;28;20044;-71
2021/11/19 05:45:54;;;;;;;26.95;13.75;;;;;;;10.05;100.00;102376.78;5037458;28;20037;-71
2021/11/19 05:48:22;;;;;;;32.15;15.15;;;;;;;10.08;100.00;102366.72;5042833;28;20060;-71
2021/11/19 05:50:50;;;;;;;30.15;14.68;;;;;;;10.00;100.00;102367.31;5038295;28;20110;-70
2021/11/19 05:53:20;;;;;;;31.40;15.27;;;;;;;9.95;100.00;102377.53;5039373;28;20056;-71
2021/11/19 05:55:49;;;;;;;31.35;14.13;;;;;;;9.97;100.00;102380.91;5036600;28;20624;-70
2021/11/19 05:58:19;;;;;;;37.17;15.82;;;;;;;9.98;100.00;102382.59;5041192;28;20053;-71
2021/11/19 06:00:50;;;;;;;34.60;14.60;;;;;;;10.03;100.00;102379.56;5038545;28;20437;-70
2021/11/19 06:03:20;;;;;;;34.88;14.63;;;;;;;10.03;100.00;102379.56;5038770;28;20042;-71
2021/11/19 06:05:48;;;;;;;31.88;14.35;;;;;;;10.10;100.00;102386.13;5042670;28;20108;-70
2021/11/19 06:08:16;;;;;;;32.45;15.23;;;;;;;10.14;100.00;102386.75;5040571;28;20311;-71
2021/11/19 06:10:50;;;;;;;37.13;16.98;;;;;;;10.00;100.00;102386.00;5039551;28;20091;-71
2021/11/19 06:13:21;;;;;;;38.90;17.65;;;;;;;10.00;100.00;102393.16;5041672;28;20111;-71
2021/11/19 06:16:10;;;;;;;35.25;14.23;;;;;;;10.10;100.00;102391.44;5037634;28;20344;-71
2021/11/19 06:18:43;;;;;;;33.78;16.60;;;;;;;10.05;100.00;102400.78;5040953;28;20047;-71
2021/11/19 06:21:13;;;;;;;39.35;17.10;;;;;;;9.96;100.00;102402.38;5037725;28;20091;-71
2021/11/19 06:23:47;;;;;;;39.42;17.00;;;;;;;10.03;100.00;102402.75;5040954;28;20144;-71
2021/11/19 06:26:18;;;;;;;35.10;17.63;;;;;;;10.02;100.00;102409.06;5042993;28;20041;-71
2021/11/19 06:28:48;;;;;;;39.28;16.65;;;;;;;9.99;100.00;102413.69;5040251;28;20045;-71
2021/11/19 06:31:18;;;;;;;37.63;17.25;;;;;;;9.94;100.00;102407.84;5034155;28;20361;-71
2021/11/19 06:33:48;;;;;;;34.30;16.70;;;;;;;9.92;100.00;102406.25;5036716;28;20068;-71
2021/11/19 06:36:16;;;;;;;38.63;16.77;;;;;;;9.98;100.00;102405.78;5038069;28;20565;-71
2021/11/19 06:38:46;;;;;;;35.72;16.23;;;;;;;9.93;100.00;102406.13;5039134;28;20071;-71
2021/11/19 06:41:15;;;;;;;39.75;16.77;;;;;;;9.90;100.00;102414.38;5037168;28;20095;-71
2021/11/19 06:43:44;;;;;;;37.47;17.80;;;;;;;9.86;100.00;102420.91;5039976;28;20091;-71
2021/11/19 06:46:13;;;;;;;42.42;18.40;;;;;;;9.85;100.00;102421.03;5038458;28;20417;-71
2021/11/19 06:48:42;;;;;;;42.20;17.10;;;;;;;9.86;100.00;102415.59;5038313;28;20069;-71
2021/11/19 06:51:12;;;;;;;46.60;20.85;;;;;;;9.88;100.00;102429.69;5034843;28;20049;-71
2021/11/19 06:53:41;;;;;;;46.67;19.52;;;;;;;9.82;100.00;102439.00;5044786;28;20467;-71
2021/11/19 06:56:09;;;;;;;45.53;18.25;;;;;;;9.83;100.00;102435.34;5041812;28;20052;-71
2021/11/19 06:58:37;;;;;;;46.00;18.60;;;;;;;9.92;100.00;102435.59;5040740;28;20053;-71
2021/11/19 07:01:05;;;;;;;39.78;16.27;;;;;;;9.80;100.00;102445.41;5038937;28;20069;-71
2021/11/19 07:03:34;;;;;;;36.55;16.83;;;;;;;9.89;100.00;102441.19;5037184;28;20419;-71
2021/11/19 07:06:02;;;;;;;40.58;18.63;;;;;;;9.81;100.00;102439.13;5038889;28;20049;-70
2021/11/19 07:08:32;;;;;;;39.42;17.70;;;;;;;9.85;100.00;102440.56;5041828;28;20064;-71
2021/11/19 07:11:03;;;;;;;42.15;18.15;;;;;;;9.81;100.00;102447.13;5039785;28;20033;-70
2021/11/19 07:13:31;;;;;;;40.28;17.45;;;;;;;9.96;100.00;102448.59;5043412;28;20036;-70
2021/11/19 07:15:59;;;;;;;46.63;18.67;;;;;;;9.90;100.00;102450.91;5037562;28;20068;-70
2021/11/19 07:18:27;;;;;;;42.20;18.75;;;;;;;9.92;100.00;102454.28;5038918;28;20045;-70
2021/11/19 07:20:55;;;;;;;43.38;18.27;;;;;;;9.95;100.00;102468.25;5039687;28;20041;-70
2021/11/19 07:23:24;;;;;;;38.25;17.05;;;;;;;9.92;100.00;102467.63;5037007;28;20049;-70
2021/11/19 07:25:55;;;;;;;41.70;17.95;;;;;;;9.92;100.00;102462.28;5040042;28;20057;-70
2021/11/19 07:28:23;;;;;;;38.05;17.88;;;;;;;9.95;100.00;102472.72;5041084;28;20399;-70
2021/11/19 07:30:54;;;;;;;35.78;17.75;;;;;;;9.97;100.00;102468.13;5033200;28;20052;-70
2021/11/19 07:33:23;;;;;;;36.42;17.52;;;;;;;10.03;100.00;102470.31;5035529;28;20110;-70
2021/11/19 07:35:52;;;;;;;35.88;16.17;;;;;;;9.98;100.00;102467.19;5036118;28;20391;-69
2021/11/19 07:38:21;;;;;;;39.13;18.08;;;;;;;9.96;100.00;102474.44;5039022;28;20099;-70
2021/11/19 07:40:49;;;;;;;33.35;16.75;;;;;;;9.93;100.00;102480.84;5036397;28;20049;-70
2021/11/19 07:43:21;;;;;;;39.00;16.80;;;;;;;9.98;100.00;102480.53;5041581;28;20459;-71
2021/11/19 07:45:49;;;;;;;38.72;17.30;;;;;;;9.94;100.00;102479.88;5039848;28;20033;-71
2021/11/19 07:48:20;;;;;;;35.03;17.60;;;;;;;9.97;100.00;102484.16;5041590;28;20033;-71
2021/11/19 07:50:51;;;;;;;40.10;16.42;;;;;;;9.99;100.00;102483.06;5044609;28;20053;-70
2021/11/19 07:53:21;;;;;;;35.50;17.25;;;;;;;10.09;100.00;102483.22;5038869;28;20306;-71
2021/11/19 07:55:50;;;;;;;37.00;18.20;;;;;;;10.09;100.00;102480.53;5044155;28;20053;-69
2021/11/19 07:58:20;;;;;;;38.80;16.92;;;;;;;10.14;100.00;102483.69;5042011;28;20392;-70
2021/11/19 08:00:49;;;;;;;33.72;15.35;;;;;;;10.20;100.00;102485.03;5043141;28;20048;-70
2021/11/19 08:03:17;;;;;;;32.58;15.75;;;;;;;10.27;100.00;102478.22;5045496;28;20061;-70
2021/11/19 08:05:49;;;;;;;35.75;15.90;;;;;;;10.20;100.00;102481.50;5043141;28;20352;-70
2021/11/19 08:08:17;;;;;;;34.78;16.02;;;;;;;10.33;100.00;102483.09;5043660;28;20448;-72
2021/11/19 08:10:46;;;;;;;38.42;15.40;;;;;;;10.42;100.00;102476.22;5042355;28;20041;-70
2021/11/19 08:13:14;;;;;;;33.38;16.00;;;;;;;10.43;100.00;102474.38;5041493;28;20351;-70
2021/11/19 08:15:44;;;;;;;34.65;17.02;;;;;;;10.45;100.00;102478.63;5045074;28;20046;-72
2021/11/19 08:18:15;;;;;;;33.40;15.70;;;;;;;10.53;100.00;102472.66;5038907;28;20362;-73
2021/11/19 08:20:45;;;;;;;32.58;14.95;;;;;;;10.51;100.00;102478.13;5040704;28;20045;-70
2021/11/19 08:23:17;;;;;;;29.30;14.02;;;;;;;10.49;100.00;102482.75;5045995;28;20123;-72
2021/11/19 08:25:46;;;;;;;37.83;16.20;;;;;;;10.29;100.00;102489.66;5040464;28;20048;-72
2021/11/19 08:28:31;;;;;;;31.02;15.80;;;;;;;10.41;100.00;102497.69;5045587;28;20064;-72
2021/11/19 08:31:01;;;;;;;34.17;16.50;;;;;;;10.47;100.00;102495.38;5037565;28;20044;-72
2021/11/19 08:33:29;;;;;;;30.70;14.88;;;;;;;10.38;100.00;102489.94;5043383;28;20071;-72
2021/11/19 08:35:58;;;;;;;33.58;15.52;;;;;;;10.51;100.00;102496.00;5041044;28;20056;-72
2021/11/19 08:38:27;;;;;;;35.75;18.23;;;;;;;10.50;100.00;102495.16;5039961;28;20396;-72
2021/11/19 08:40:56;;;;;;;36.40;17.42;;;;;;;10.38;100.00;102496.13;5045240;28;20053;-71
2021/11/19 08:43:26;;;;;;;36.05;16.50;;;;;;;10.51;100.00;102502.19;5040229;28;20325;-70
2021/11/19 08:45:55;;;;;;;38.45;16.70;;;;;;;10.58;100.00;102496.38;5042973;28;20044;-70
2021/11/19 08:48:25;;;;;;;32.72;16.67;;;;;;;10.48;100.00;102498.91;5041803;28;20133;-71
2021/11/19 08:50:54;;;;;;;42.90;16.58;;;;;;;10.60;100.00;102494.41;5040523;28;20052;-71
2021/11/19 08:53:22;;;;;;;31.95;16.08;;;;;;;10.56;100.00;102509.84;5045980;28;20041;-70
2021/11/19 08:55:52;;;;;;;36.67;17.10;;;;;;;10.66;100.00;102501.91;5041806;28;20053;-70
2021/11/19 08:58:23;;;;;;;31.55;14.77;;;;;;;10.88;100.00;102503.72;5042867;28;20041;-70
2021/11/19 09:00:52;;;;;;;31.98;15.02;;;;;;;10.91;100.00;102508.81;5041585;28;20040;-70
2021/11/19 09:03:27;;;;;;;31.25;15.38;;;;;;;10.74;100.00;102502.16;5041646;28;20348;-70
2021/11/19 09:05:59;;;;;;;30.90;16.10;;;;;;;10.78;100.00;102500.09;5043389;28;20047;-70
2021/11/19 09:08:29;;;;;;;31.67;14.77;;;;;;;10.74;100.00;102506.66;5042384;28;20080;-70
2021/11/19 09:10:58;;;;;;;34.88;15.80;;;;;;;10.81;100.00;102499.84;5040897;28;20064;-70
2021/11/19 09:13:27;;;;;;;29.27;14.40;;;;;;;10.80;100.00;102491.00;5044933;28;20053;-70
2021/11/19 09:15:56;;;;;;;34.65;15.93;;;;;;;10.74;100.00;102495.97;5038549;28;20366;-71
2021/11/19 09:18:35;;;;;;;31.25;14.82;;;;;;;10.75;100.00;102497.69;5041609;28;20045;-70
2021/11/19 09:21:11;;;;;;;41.35;17.02;;;;;;;10.81;100.00;102505.19;5038369;28;20868;-70
2021/11/19 09:23:42;;;;;;;31.35;14.85;;;;;;;10.90;100.00;102507.16;5043986;28;20037;-70
2021/11/19 09:26:13;;;;;;;31.33;15.82;;;;;;;11.06;100.00;102506.75;5041541;28;20053;-70
2021/11/19 09:28:45;;;;;;;32.53;14.85;;;;;;;11.06;100.00;102513.91;5039266;28;20057;-72
2021/11/19 09:31:17;;;;;;;31.35;16.13;;;;;;;10.98;100.00;102515.38;5038409;28;20045;-71
2021/11/19 09:33:49;;;;;;;35.22;16.80;;;;;;;10.78;100.00;102513.47;5041990;28;20033;-71
2021/11/19 09:36:18;;;;;;;32.03;16.40;;;;;;;10.85;100.00;102512.00;5042031;28;20053;-70
2021/11/19 09:38:47;;;;;;;34.47;15.80;;;;;;;10.91;100.00;102519.50;5042922;28;20048;-70
2021/11/19 09:41:45;;;;;;;32.78;17.38;;;;;;;10.83;100.00;102527.28;5038107;28;20064;-70
2021/11/19 09:45:02;;;;;;;35.83;17.13;;;;;;;10.70;100.00;102531.94;5039717;28;20041;-70
2021/11/19 09:47:46;;;;;;;38.10;17.00;;;;;;;10.70;100.00;102532.78;5041458;28;20042;-70
2021/11/19 09:50:40;;;;;;;39.50;17.50;;;;;;;10.94;100.00;102532.63;5037489;28;20045;-70
2021/11/19 09:53:46;;;;;;;33.88;17.17;;;;;;;10.90;100.00;102533.00;5042404;28;20037;-70
2021/11/19 09:56:47;;;;;;;33.15;15.93;;;;;;;11.07;100.00;102523.63;4967422;28;20070;-70
2021/11/19 09:59:21;;;;;;;34.55;15.43;;;;;;;11.13;100.00;102523.13;4997655;28;20073;-70
2021/11/19 10:02:12;;;;;;;36.63;17.90;;;;;;;11.18;100.00;102519.13;5038198;28;20409;-70
2021/11/19 10:05:11;;;;;;;33.03;16.05;;;;;;;10.98;100.00;102523.38;5042465;28;20052;-70
2021/11/19 10:07:48;;;;;;;34.95;16.27;;;;;;;10.89;100.00;102516.13;5037870;28;20334;-70
2021/11/19 10:10:33;;;;;;;37.55;18.58;;;;;;;10.97;100.00;102518.16;5037717;28;20053;-70
2021/11/19 10:13:04;;;;;;;37.50;17.85;;;;;;;10.89;100.00;102520.59;5041195;28;20041;-70
2021/11/19 10:15:42;;;;;;;33.78;16.50;;;;;;;11.14;100.00;102516.78;5041561;28;20052;-70
2021/11/19 10:18:16;;;;;;;34.90;17.98;;;;;;;10.96;100.00;102513.81;5037372;28;20042;-70
2021/11/19 10:20:52;;;;;;;36.13;17.55;;;;;;;11.03;100.00;102521.19;5040823;28;20460;-71
2021/11/19 10:23:27;;;;;;;36.67;16.10;;;;;;;11.33;100.00;102517.00;5040422;28;20139;-70
2021/11/19 10:26:00;;;;;;;34.10;17.55;;;;;;;11.34;100.00;102510.66;5040791;28;20049;-71
2021/11/19 10:28:35;;;;;;;34.25;16.90;;;;;;;11.38;100.00;102519.28;5042172;28;20052;-70
2021/11/19 10:31:03;;;;;;;31.27;16.05;;;;;;;11.20;100.00;102516.31;5036212;28;20095;-70
2021/11/19 10:33:33;;;;;;;29.88;15.70;;;;;;;11.37;100.00;102513.09;5039479;28;20107;-70
2021/11/19 10:36:27;;;;;;;33.70;16.73;;;;;;;11.40;100.00;102508.44;5038401;28;20049;-70
2021/11/19 10:39:35;;;;;;;33.22;17.33;;;;;;;11.43;100.00;102502.88;5041530;28;20384;-70
2021/11/19 10:42:37;;;;;;;32.15;15.50;;;;;;;11.61;100.00;102501.31;5043090;28;20045;-70
2021/11/19 10:45:45;;;;;;;31.35;15.57;;;;;;;11.53;100.00;102509.13;5042186;28;20084;-70
2021/11/19 10:49:03;;;;;;;30.88;15.13;;;;;;;11.39;100.00;102506.78;5034614;28;20499;-71
2021/11/19 10:52:02;;;;;;;32.25;16.77;;;;;;;11.49;100.00;102503.19;4959951;28;20351;-70
2021/11/19 10:55:06;;;;;;;30.73;16.33;;;;;;;11.65;100.00;102504.56;4959208;28;20466;-70
2021/11/19 10:58:07;;;;;;;30.65;16.35;;;;;;;11.55;100.00;102501.81;5040230;28;20092;-72
2021/11/19 11:00:49;;;;;;;31.50;15.30;;;;;;;11.49;100.00;102505.84;5035825;28;20433;-73
2021/11/19 11:03:24;;;;;;;30.75;14.80;;;;;;;11.81;100.00;102506.84;5041305;28;20139;-73
2021/11/19 11:05:58;;;;;;;31.67;15.43;;;;;;;11.96;100.00;102500.19;5040767;28;20066;-70
2021/11/19 11:08:30;;;;;;;32.63;15.77;;;;;;;11.95;100.00;102492.28;5037287;28;20663;-70
2021/11/19 11:11:03;;;;;;;28.25;16.40;;;;;;;11.85;100.00;102492.19;5040686;28;20052;-70
2021/11/19 11:13:37;;;;;;;27.00;14.10;;;;;;;11.88;100.00;102481.22;5039978;28;20036;-70
2021/11/19 11:16:10;;;;;;;30.63;14.13;;;;;;;12.26;100.00;102486.97;5041252;28;20325;-70
2021/11/19 11:18:54;;;;;;;26.73;13.75;;;;;;;12.51;100.00;102493.69;5041873;28;20042;-71
2021/11/19 11:21:30;;;;;;;28.30;14.35;;;;;;;11.85;100.00;102494.84;5036233;28;20506;-70
2021/11/19 11:24:07;;;;;;;26.27;15.32;;;;;;;11.85;100.00;102487.69;5036476;28;20336;-70
2021/11/19 11:26:45;;;;;;;26.27;13.65;;;;;;;11.90;100.00;102487.28;5041901;28;20041;-70
2021/11/19 11:29:37;;;;;;;26.52;14.18;;;;;;;11.97;100.00;102485.81;5037871;28;20046;-72